Portada
METAR-TAF:

METAR-TAF

Aeroports :

Bangkok, Tailàndia

latitud: 13-54-45N, longitud: 100-36-24E, altitud: 4 m

Observació

L'informe es va fer fa 38 minuts, a les 13:30 UTC
Vent 7 kt del Sud, variant entre Sud/Sud-Est i Sud-Oest
Temperatura 32°C
Humitat 63%
Pressió 1006 hPa
Visibilitat 10 km o més
Escasses núvols a una alçada de 2000 ft

METAR: VTBD 141330Z 19007KT 160V220 9999 FEW020 32/24 Q1006 NOSIG

Hora: 21:08 (14:08 UTC)

Pronòstic

L'informe es va fer fa 3 hores i 8 minuts, a les 11:00 UTC
Pronòstic vàlid del 14 a les 12 UTC al 15 a les 18 UTC
Vent 8 kt del Sud
Visibilitat 10 km o més
Escasses núvols a una alçada de 2000 ft
Evolucionant progressivament
l' 14 a les 18 UTC al 14 a les 20 UTC
Vent 5 kt del Sud-Est
Evolucionant progressivament
l' 15 a les 01 UTC al 15 a les 03 UTC
Vent 8 kt del Sud

TAF: VTBD 141100Z 1412/1518 19008KT 9999 FEW020 BECMG 1418/1420 13005KT BECMG 1501/1503 19008KT

Observacions i pronòstics meteorològics de més de 4000 aeroports (METAR i TAF).

Les estacions disponibles són els punts grocs i vermells al mapa.

Posi el ratolí al punt desitjat per veure el nom de l'estació.

Feu clic per veure les observacions i els pronòstics meteorològics.

Per canviar el mapa: feu clic els botons verds amb una creu de color negre per apropar; al botó verd amb un guió per allunyar la imatge; o en les fletxes verdes per a mapes adjacents.


METAR-TAF: